sensor_id;sensor_type;location;lat;lon;timestamp;P1;durP1;ratioP1;P2;durP2;ratioP2
59766;SDS011;46248;58.364;25.582;2022-07-06T00:02:51;1.92;;;0.95;;
59766;SDS011;46248;58.364;25.582;2022-07-06T00:06:15;3.42;;;1.10;;
59766;SDS011;46248;58.364;25.582;2022-07-06T00:09:37;5.35;;;1.30;;
59766;SDS011;46248;58.364;25.582;2022-07-06T00:12:59;2.85;;;1.20;;
59766;SDS011;46248;58.364;25.582;2022-07-06T00:16:21;1.83;;;1.15;;
59766;SDS011;46248;58.364;25.582;2022-07-06T00:19:43;2.50;;;1.05;;
59766;SDS011;46248;58.364;25.582;2022-07-06T00:23:06;2.22;;;0.90;;
59766;SDS011;46248;58.364;25.582;2022-07-06T00:26:28;2.50;;;0.88;;
59766;SDS011;46248;58.364;25.582;2022-07-06T00:29:50;2.70;;;1.20;;
59766;SDS011;46248;58.364;25.582;2022-07-06T00:33:12;1.65;;;0.95;;
59766;SDS011;46248;58.364;25.582;2022-07-06T00:36:34;2.35;;;0.90;;
59766;SDS011;46248;58.364;25.582;2022-07-06T00:39:58;2.15;;;1.08;;
59766;SDS011;46248;58.364;25.582;2022-07-06T00:43:20;1.17;;;0.88;;
59766;SDS011;46248;58.364;25.582;2022-07-06T00:46:42;3.20;;;0.85;;
59766;SDS011;46248;58.364;25.582;2022-07-06T00:50:04;2.22;;;0.95;;
59766;SDS011;46248;58.364;25.582;2022-07-06T00:53:38;2.45;;;1.13;;
59766;SDS011;46248;58.364;25.582;2022-07-06T00:57:03;3.20;;;0.90;;
59766;SDS011;46248;58.364;25.582;2022-07-06T01:00:26;3.47;;;1.10;;
59766;SDS011;46248;58.364;25.582;2022-07-06T01:03:48;2.47;;;0.80;;
59766;SDS011;46248;58.364;25.582;2022-07-06T01:07:10;2.97;;;0.98;;
59766;SDS011;46248;58.364;25.582;2022-07-06T01:10:32;3.28;;;1.00;;
59766;SDS011;46248;58.364;25.582;2022-07-06T01:13:56;2.30;;;1.38;;
59766;SDS011;46248;58.364;25.582;2022-07-06T01:17:18;2.25;;;0.90;;
59766;SDS011;46248;58.364;25.582;2022-07-06T01:20:43;3.13;;;1.27;;
59766;SDS011;46248;58.364;25.582;2022-07-06T01:24:05;1.45;;;0.80;;
59766;SDS011;46248;58.364;25.582;2022-07-06T01:27:27;1.58;;;0.70;;
59766;SDS011;46248;58.364;25.582;2022-07-06T01:30:49;2.35;;;0.90;;
59766;SDS011;46248;58.364;25.582;2022-07-06T01:34:11;3.10;;;1.00;;
59766;SDS011;46248;58.364;25.582;2022-07-06T01:37:35;1.33;;;0.80;;
59766;SDS011;46248;58.364;25.582;2022-07-06T01:40:57;2.40;;;0.80;;
59766;SDS011;46248;58.364;25.582;2022-07-06T01:44:19;1.60;;;0.70;;
59766;SDS011;46248;58.364;25.582;2022-07-06T01:47:41;1.80;;;0.80;;
59766;SDS011;46248;58.364;25.582;2022-07-06T01:51:03;1.17;;;0.60;;
59766;SDS011;46248;58.364;25.582;2022-07-06T01:54:26;1.17;;;0.88;;
59766;SDS011;46248;58.364;25.582;2022-07-06T01:57:49;2.85;;;1.25;;
59766;SDS011;46248;58.364;25.582;2022-07-06T02:01:13;1.20;;;0.80;;
59766;SDS011;46248;58.364;25.582;2022-07-06T02:04:36;6.65;;;1.30;;
59766;SDS011;46248;58.364;25.582;2022-07-06T02:07:58;2.05;;;0.90;;
59766;SDS011;46248;58.364;25.582;2022-07-06T02:11:21;3.55;;;1.23;;
59766;SDS011;46248;58.364;25.582;2022-07-06T02:14:43;4.68;;;0.98;;
59766;SDS011;46248;58.364;25.582;2022-07-06T02:18:05;4.60;;;1.05;;
59766;SDS011;46248;58.364;25.582;2022-07-06T02:21:27;1.98;;;0.90;;
59766;SDS011;46248;58.364;25.582;2022-07-06T02:24:49;2.95;;;1.10;;
59766;SDS011;46248;58.364;25.582;2022-07-06T02:28:13;2.28;;;0.82;;
59766;SDS011;46248;58.364;25.582;2022-07-06T02:31:35;3.60;;;1.35;;
59766;SDS011;46248;58.364;25.582;2022-07-06T02:34:57;2.10;;;0.80;;
59766;SDS011;46248;58.364;25.582;2022-07-06T02:38:19;1.38;;;0.90;;
59766;SDS011;46248;58.364;25.582;2022-07-06T02:41:41;1.15;;;0.77;;
59766;SDS011;46248;58.364;25.582;2022-07-06T02:45:05;2.38;;;0.80;;
59766;SDS011;46248;58.364;25.582;2022-07-06T02:48:27;4.38;;;0.98;;
59766;SDS011;46248;58.364;25.582;2022-07-06T02:51:49;1.73;;;0.80;;
59766;SDS011;46248;58.364;25.582;2022-07-06T02:55:11;1.10;;;0.50;;
59766;SDS011;46248;58.364;25.582;2022-07-06T02:58:32;5.93;;;0.93;;
59766;SDS011;46248;58.364;25.582;2022-07-06T03:01:56;2.85;;;0.93;;
59766;SDS011;46248;58.364;25.582;2022-07-06T03:05:18;3.08;;;0.80;;
59766;SDS011;46248;58.364;25.582;2022-07-06T03:08:40;2.13;;;1.00;;
59766;SDS011;46248;58.364;25.582;2022-07-06T03:12:02;2.13;;;1.00;;
59766;SDS011;46248;58.364;25.582;2022-07-06T03:15:24;2.55;;;0.63;;
59766;SDS011;46248;58.364;25.582;2022-07-06T03:18:47;1.70;;;0.80;;
59766;SDS011;46248;58.364;25.582;2022-07-06T03:22:09;1.23;;;0.70;;
59766;SDS011;46248;58.364;25.582;2022-07-06T03:25:31;2.70;;;0.98;;
59766;SDS011;46248;58.364;25.582;2022-07-06T03:28:54;1.83;;;0.80;;
59766;SDS011;46248;58.364;25.582;2022-07-06T03:32:16;3.30;;;0.90;;
59766;SDS011;46248;58.364;25.582;2022-07-06T03:35:39;1.25;;;0.80;;
59766;SDS011;46248;58.364;25.582;2022-07-06T03:39:01;4.18;;;1.15;;
59766;SDS011;46248;58.364;25.582;2022-07-06T03:42:23;2.55;;;0.80;;
59766;SDS011;46248;58.364;25.582;2022-07-06T03:45:45;2.42;;;1.10;;
59766;SDS011;46248;58.364;25.582;2022-07-06T03:49:07;2.83;;;0.70;;
59766;SDS011;46248;58.364;25.582;2022-07-06T03:52:30;2.13;;;0.90;;
59766;SDS011;46248;58.364;25.582;2022-07-06T03:55:53;2.67;;;0.73;;
59766;SDS011;46248;58.364;25.582;2022-07-06T03:59:34;3.35;;;0.80;;
59766;SDS011;46248;58.364;25.582;2022-07-06T04:02:56;1.25;;;0.80;;
59766;SDS011;46248;58.364;25.582;2022-07-06T04:06:18;3.72;;;1.20;;
59766;SDS011;46248;58.364;25.582;2022-07-06T04:09:42;3.20;;;0.73;;
59766;SDS011;46248;58.364;25.582;2022-07-06T04:13:04;1.08;;;0.80;;
59766;SDS011;46248;58.364;25.582;2022-07-06T04:16:25;4.78;;;1.00;;
59766;SDS011;46248;58.364;25.582;2022-07-06T04:19:47;3.75;;;0.82;;
59766;SDS011;46248;58.364;25.582;2022-07-06T04:23:09;2.88;;;1.08;;
59766;SDS011;46248;58.364;25.582;2022-07-06T04:26:32;3.70;;;0.93;;
59766;SDS011;46248;58.364;25.582;2022-07-06T04:29:54;4.35;;;1.75;;
59766;SDS011;46248;58.364;25.582;2022-07-06T04:33:16;2.17;;;1.50;;
59766;SDS011;46248;58.364;25.582;2022-07-06T04:36:38;2.28;;;1.50;;
59766;SDS011;46248;58.364;25.582;2022-07-06T04:40:00;1.92;;;1.27;;
59766;SDS011;46248;58.364;25.582;2022-07-06T04:43:23;3.53;;;1.00;;
59766;SDS011;46248;58.364;25.582;2022-07-06T04:46:46;3.53;;;1.48;;
59766;SDS011;46248;58.364;25.582;2022-07-06T04:50:08;3.38;;;0.82;;
59766;SDS011;46248;58.364;25.582;2022-07-06T04:53:30;2.95;;;0.80;;
59766;SDS011;46248;58.364;25.582;2022-07-06T04:56:52;5.65;;;1.30;;
59766;SDS011;46248;58.364;25.582;2022-07-06T05:00:17;4.88;;;1.20;;
59766;SDS011;46248;58.364;25.582;2022-07-06T05:03:40;3.13;;;1.13;;
59766;SDS011;46248;58.364;25.582;2022-07-06T05:07:02;2.67;;;0.85;;
59766;SDS011;46248;58.364;25.582;2022-07-06T05:10:24;3.80;;;1.40;;
59766;SDS011;46248;58.364;25.582;2022-07-06T05:13:46;4.90;;;1.30;;
59766;SDS011;46248;58.364;25.582;2022-07-06T05:17:09;3.78;;;1.10;;
59766;SDS011;46248;58.364;25.582;2022-07-06T05:20:31;4.32;;;0.95;;
59766;SDS011;46248;58.364;25.582;2022-07-06T05:23:53;1.48;;;0.50;;
59766;SDS011;46248;58.364;25.582;2022-07-06T05:27:15;2.83;;;0.98;;
59766;SDS011;46248;58.364;25.582;2022-07-06T05:30:38;2.20;;;0.95;;
59766;SDS011;46248;58.364;25.582;2022-07-06T05:34:01;5.00;;;1.40;;
59766;SDS011;46248;58.364;25.582;2022-07-06T05:37:23;2.67;;;1.30;;
59766;SDS011;46248;58.364;25.582;2022-07-06T05:40:45;1.98;;;0.82;;
59766;SDS011;46248;58.364;25.582;2022-07-06T05:44:07;1.48;;;0.80;;
59766;SDS011;46248;58.364;25.582;2022-07-06T05:47:29;2.83;;;0.73;;
59766;SDS011;46248;58.364;25.582;2022-07-06T05:51:10;4.95;;;1.58;;
59766;SDS011;46248;58.364;25.582;2022-07-06T05:54:32;3.42;;;1.15;;
59766;SDS011;46248;58.364;25.582;2022-07-06T05:57:54;1.50;;;0.60;;
59766;SDS011;46248;58.364;25.582;2022-07-06T06:01:16;4.53;;;1.00;;
59766;SDS011;46248;58.364;25.582;2022-07-06T06:04:38;1.42;;;0.70;;
59766;SDS011;46248;58.364;25.582;2022-07-06T06:08:03;2.88;;;0.73;;
59766;SDS011;46248;58.364;25.582;2022-07-06T06:11:26;2.80;;;0.70;;
59766;SDS011;46248;58.364;25.582;2022-07-06T06:14:48;2.15;;;0.90;;
59766;SDS011;46248;58.364;25.582;2022-07-06T06:18:10;2.92;;;1.00;;
59766;SDS011;46248;58.364;25.582;2022-07-06T06:21:32;2.70;;;0.98;;
59766;SDS011;46248;58.364;25.582;2022-07-06T06:24:56;3.35;;;0.75;;
59766;SDS011;46248;58.364;25.582;2022-07-06T06:28:18;3.60;;;0.77;;
59766;SDS011;46248;58.364;25.582;2022-07-06T06:31:40;2.28;;;0.63;;
59766;SDS011;46248;58.364;25.582;2022-07-06T06:35:04;1.80;;;0.70;;
59766;SDS011;46248;58.364;25.582;2022-07-06T06:38:27;2.58;;;0.90;;
59766;SDS011;46248;58.364;25.582;2022-07-06T06:41:51;2.42;;;0.75;;
59766;SDS011;46248;58.364;25.582;2022-07-06T06:45:13;3.17;;;0.73;;
59766;SDS011;46248;58.364;25.582;2022-07-06T06:48:35;2.50;;;0.70;;
59766;SDS011;46248;58.364;25.582;2022-07-06T06:51:56;3.55;;;1.00;;
59766;SDS011;46248;58.364;25.582;2022-07-06T06:55:38;3.92;;;0.80;;
59766;SDS011;46248;58.364;25.582;2022-07-06T06:59:02;3.92;;;0.75;;
59766;SDS011;46248;58.364;25.582;2022-07-06T07:02:39;2.47;;;0.90;;
59766;SDS011;46248;58.364;25.582;2022-07-06T07:06:01;1.98;;;0.70;;
59766;SDS011;46248;58.364;25.582;2022-07-06T07:09:23;5.13;;;0.98;;
59766;SDS011;46248;58.364;25.582;2022-07-06T07:12:45;3.95;;;0.93;;
59766;SDS011;46248;58.364;25.582;2022-07-06T07:16:10;1.40;;;0.60;;
59766;SDS011;46248;58.364;25.582;2022-07-06T07:19:31;3.75;;;0.90;;
59766;SDS011;46248;58.364;25.582;2022-07-06T07:22:53;1.13;;;0.95;;
59766;SDS011;46248;58.364;25.582;2022-07-06T07:26:15;2.53;;;1.00;;
59766;SDS011;46248;58.364;25.582;2022-07-06T07:29:37;3.08;;;0.90;;
59766;SDS011;46248;58.364;25.582;2022-07-06T07:33:00;6.22;;;0.80;;
59766;SDS011;46248;58.364;25.582;2022-07-06T07:36:22;1.27;;;0.60;;
59766;SDS011;46248;58.364;25.582;2022-07-06T07:39:45;4.10;;;0.70;;
59766;SDS011;46248;58.364;25.582;2022-07-06T07:43:07;3.72;;;0.85;;
59766;SDS011;46248;58.364;25.582;2022-07-06T07:46:29;2.15;;;0.52;;
59766;SDS011;46248;58.364;25.582;2022-07-06T07:49:52;1.67;;;0.60;;
59766;SDS011;46248;58.364;25.582;2022-07-06T07:53:14;3.80;;;0.70;;
59766;SDS011;46248;58.364;25.582;2022-07-06T07:56:36;1.60;;;0.63;;
59766;SDS011;46248;58.364;25.582;2022-07-06T08:00:00;6.28;;;0.80;;
59766;SDS011;46248;58.364;25.582;2022-07-06T08:03:23;1.38;;;0.70;;
59766;SDS011;46248;58.364;25.582;2022-07-06T08:06:46;5.53;;;1.00;;
59766;SDS011;46248;58.364;25.582;2022-07-06T08:10:09;3.25;;;0.90;;
59766;SDS011;46248;58.364;25.582;2022-07-06T08:13:31;1.65;;;0.60;;
59766;SDS011;46248;58.364;25.582;2022-07-06T08:16:54;2.85;;;0.80;;
59766;SDS011;46248;58.364;25.582;2022-07-06T08:20:15;1.77;;;0.77;;
59766;SDS011;46248;58.364;25.582;2022-07-06T08:23:39;2.42;;;0.80;;
59766;SDS011;46248;58.364;25.582;2022-07-06T08:27:01;2.63;;;0.90;;
59766;SDS011;46248;58.364;25.582;2022-07-06T08:30:24;3.17;;;0.88;;
59766;SDS011;46248;58.364;25.582;2022-07-06T08:33:46;3.03;;;0.70;;
59766;SDS011;46248;58.364;25.582;2022-07-06T08:37:08;2.60;;;0.63;;
59766;SDS011;46248;58.364;25.582;2022-07-06T08:40:33;2.47;;;0.70;;
59766;SDS011;46248;58.364;25.582;2022-07-06T08:44:01;2.58;;;0.73;;
59766;SDS011;46248;58.364;25.582;2022-07-06T08:47:23;0.75;;;0.57;;
59766;SDS011;46248;58.364;25.582;2022-07-06T08:50:47;2.58;;;0.70;;
59766;SDS011;46248;58.364;25.582;2022-07-06T08:54:10;2.72;;;0.73;;
59766;SDS011;46248;58.364;25.582;2022-07-06T08:57:34;2.65;;;1.20;;
59766;SDS011;46248;58.364;25.582;2022-07-06T09:00:57;3.03;;;0.60;;
59766;SDS011;46248;58.364;25.582;2022-07-06T09:04:19;5.47;;;0.77;;
59766;SDS011;46248;58.364;25.582;2022-07-06T09:07:43;4.32;;;1.45;;
59766;SDS011;46248;58.364;25.582;2022-07-06T09:11:19;4.95;;;1.05;;
59766;SDS011;46248;58.364;25.582;2022-07-06T09:14:43;5.45;;;0.80;;
59766;SDS011;46248;58.364;25.582;2022-07-06T09:18:06;7.80;;;1.08;;
59766;SDS011;46248;58.364;25.582;2022-07-06T09:21:28;5.97;;;0.82;;
59766;SDS011;46248;58.364;25.582;2022-07-06T09:24:52;3.22;;;0.80;;
59766;SDS011;46248;58.364;25.582;2022-07-06T09:28:14;5.35;;;0.90;;
59766;SDS011;46248;58.364;25.582;2022-07-06T09:31:38;1.95;;;0.70;;
59766;SDS011;46248;58.364;25.582;2022-07-06T09:35:00;2.42;;;0.85;;
59766;SDS011;46248;58.364;25.582;2022-07-06T09:38:23;5.28;;;0.80;;
59766;SDS011;46248;58.364;25.582;2022-07-06T09:41:49;4.30;;;1.33;;
59766;SDS011;46248;58.364;25.582;2022-07-06T09:45:12;7.88;;;1.20;;
59766;SDS011;46248;58.364;25.582;2022-07-06T09:48:36;5.45;;;1.08;;
59766;SDS011;46248;58.364;25.582;2022-07-06T09:51:58;6.30;;;1.48;;
59766;SDS011;46248;58.364;25.582;2022-07-06T09:55:21;7.30;;;1.35;;
59766;SDS011;46248;58.364;25.582;2022-07-06T09:58:44;3.95;;;1.20;;
59766;SDS011;46248;58.364;25.582;2022-07-06T10:02:22;1.95;;;0.75;;
59766;SDS011;46248;58.364;25.582;2022-07-06T10:05:48;2.60;;;0.88;;
59766;SDS011;46248;58.364;25.582;2022-07-06T10:09:10;6.00;;;1.90;;
59766;SDS011;46248;58.364;25.582;2022-07-06T10:12:33;7.80;;;1.65;;
59766;SDS011;46248;58.364;25.582;2022-07-06T10:15:56;4.93;;;1.00;;
59766;SDS011;46248;58.364;25.582;2022-07-06T10:19:19;4.45;;;1.70;;
59766;SDS011;46248;58.364;25.582;2022-07-06T10:22:44;3.97;;;1.08;;
59766;SDS011;46248;58.364;25.582;2022-07-06T10:26:06;2.35;;;0.80;;
59766;SDS011;46248;58.364;25.582;2022-07-06T10:29:33;2.35;;;0.60;;
59766;SDS011;46248;58.364;25.582;2022-07-06T10:32:55;2.53;;;0.65;;
59766;SDS011;46248;58.364;25.582;2022-07-06T10:36:20;4.72;;;0.85;;
59766;SDS011;46248;58.364;25.582;2022-07-06T10:39:43;4.55;;;0.82;;
59766;SDS011;46248;58.364;25.582;2022-07-06T10:43:33;3.10;;;0.73;;
59766;SDS011;46248;58.364;25.582;2022-07-06T10:46:57;3.63;;;0.80;;
59766;SDS011;46248;58.364;25.582;2022-07-06T10:50:21;1.48;;;0.57;;
59766;SDS011;46248;58.364;25.582;2022-07-06T10:53:43;2.47;;;0.80;;
59766;SDS011;46248;58.364;25.582;2022-07-06T10:57:09;3.60;;;1.02;;
59766;SDS011;46248;58.364;25.582;2022-07-06T11:00:48;1.10;;;0.65;;
59766;SDS011;46248;58.364;25.582;2022-07-06T11:04:12;4.05;;;0.73;;
59766;SDS011;46248;58.364;25.582;2022-07-06T11:07:36;2.10;;;0.57;;
59766;SDS011;46248;58.364;25.582;2022-07-06T11:11:10;4.57;;;0.82;;
59766;SDS011;46248;58.364;25.582;2022-07-06T11:14:36;2.25;;;0.60;;
59766;SDS011;46248;58.364;25.582;2022-07-06T11:18:10;4.18;;;0.85;;
59766;SDS011;46248;58.364;25.582;2022-07-06T11:21:34;1.27;;;0.60;;
59766;SDS011;46248;58.364;25.582;2022-07-06T11:24:58;2.85;;;0.68;;
59766;SDS011;46248;58.364;25.582;2022-07-06T11:28:20;5.50;;;0.73;;
59766;SDS011;46248;58.364;25.582;2022-07-06T11:31:44;2.97;;;0.70;;
59766;SDS011;46248;58.364;25.582;2022-07-06T11:35:07;2.55;;;0.77;;
59766;SDS011;46248;58.364;25.582;2022-07-06T11:38:29;4.30;;;0.60;;
59766;SDS011;46248;58.364;25.582;2022-07-06T11:41:51;3.88;;;0.70;;
59766;SDS011;46248;58.364;25.582;2022-07-06T11:45:14;4.88;;;0.85;;
59766;SDS011;46248;58.364;25.582;2022-07-06T11:48:48;1.00;;;0.40;;
59766;SDS011;46248;58.364;25.582;2022-07-06T11:56:02;1.35;;;0.70;;
59766;SDS011;46248;58.364;25.582;2022-07-06T11:59:24;7.40;;;1.02;;
59766;SDS011;46248;58.364;25.582;2022-07-06T12:02:58;6.57;;;1.15;;
59766;SDS011;46248;58.364;25.582;2022-07-06T12:06:23;6.53;;;1.27;;
59766;SDS011;46248;58.364;25.582;2022-07-06T12:09:46;2.60;;;0.77;;
59766;SDS011;46248;58.364;25.582;2022-07-06T12:13:09;4.18;;;0.60;;
59766;SDS011;46248;58.364;25.582;2022-07-06T12:16:31;1.95;;;0.60;;
59766;SDS011;46248;58.364;25.582;2022-07-06T12:19:54;9.48;;;0.95;;
59766;SDS011;46248;58.364;25.582;2022-07-06T12:23:18;2.15;;;0.70;;
59766;SDS011;46248;58.364;25.582;2022-07-06T12:26:41;1.20;;;0.60;;
59766;SDS011;46248;58.364;25.582;2022-07-06T12:30:09;2.05;;;0.93;;
59766;SDS011;46248;58.364;25.582;2022-07-06T12:33:38;4.88;;;1.00;;
59766;SDS011;46248;58.364;25.582;2022-07-06T12:37:05;4.50;;;0.90;;
59766;SDS011;46248;58.364;25.582;2022-07-06T12:40:29;3.35;;;1.00;;
59766;SDS011;46248;58.364;25.582;2022-07-06T12:43:59;3.50;;;1.00;;
59766;SDS011;46248;58.364;25.582;2022-07-06T12:47:23;1.23;;;0.70;;
59766;SDS011;46248;58.364;25.582;2022-07-06T12:50:46;3.33;;;0.90;;
59766;SDS011;46248;58.364;25.582;2022-07-06T12:54:14;2.20;;;0.70;;
59766;SDS011;46248;58.364;25.582;2022-07-06T12:57:45;4.80;;;1.00;;
59766;SDS011;46248;58.364;25.582;2022-07-06T13:01:13;6.10;;;1.00;;
59766;SDS011;46248;58.364;25.582;2022-07-06T13:04:36;3.75;;;0.85;;
59766;SDS011;46248;58.364;25.582;2022-07-06T13:07:58;6.25;;;1.08;;
59766;SDS011;46248;58.364;25.582;2022-07-06T13:11:21;1.85;;;0.77;;
59766;SDS011;46248;58.364;25.582;2022-07-06T13:14:44;5.22;;;1.20;;
59766;SDS011;46248;58.364;25.582;2022-07-06T13:18:05;6.60;;;0.90;;
59766;SDS011;46248;58.364;25.582;2022-07-06T13:21:32;3.28;;;0.88;;
59766;SDS011;46248;58.364;25.582;2022-07-06T13:24:54;3.75;;;0.73;;
59766;SDS011;46248;58.364;25.582;2022-07-06T13:28:16;5.60;;;0.73;;
59766;SDS011;46248;58.364;25.582;2022-07-06T13:31:39;2.58;;;0.75;;
59766;SDS011;46248;58.364;25.582;2022-07-06T13:35:02;1.00;;;0.70;;
59766;SDS011;46248;58.364;25.582;2022-07-06T13:38:24;3.25;;;0.60;;
59766;SDS011;46248;58.364;25.582;2022-07-06T13:41:45;1.50;;;0.80;;
59766;SDS011;46248;58.364;25.582;2022-07-06T13:45:07;3.58;;;0.70;;
59766;SDS011;46248;58.364;25.582;2022-07-06T13:48:32;3.85;;;1.10;;
59766;SDS011;46248;58.364;25.582;2022-07-06T13:51:54;7.00;;;0.70;;
59766;SDS011;46248;58.364;25.582;2022-07-06T13:55:22;2.20;;;0.60;;
59766;SDS011;46248;58.364;25.582;2022-07-06T13:58:44;1.20;;;0.90;;
59766;SDS011;46248;58.364;25.582;2022-07-06T14:02:06;12.18;;;3.00;;
59766;SDS011;46248;58.364;25.582;2022-07-06T14:05:30;5.32;;;2.30;;
59766;SDS011;46248;58.364;25.582;2022-07-06T14:08:52;10.00;;;2.38;;
59766;SDS011;46248;58.364;25.582;2022-07-06T14:12:13;8.95;;;3.13;;
59766;SDS011;46248;58.364;25.582;2022-07-06T14:15:35;3.40;;;1.05;;
59766;SDS011;46248;58.364;25.582;2022-07-06T14:18:57;9.65;;;2.78;;
59766;SDS011;46248;58.364;25.582;2022-07-06T14:22:21;6.72;;;1.58;;
59766;SDS011;46248;58.364;25.582;2022-07-06T14:25:43;6.15;;;2.40;;
59766;SDS011;46248;58.364;25.582;2022-07-06T14:29:06;3.70;;;1.27;;
59766;SDS011;46248;58.364;25.582;2022-07-06T14:32:28;5.78;;;2.63;;
59766;SDS011;46248;58.364;25.582;2022-07-06T14:35:50;3.35;;;1.92;;
59766;SDS011;46248;58.364;25.582;2022-07-06T14:39:13;4.47;;;2.65;;
59766;SDS011;46248;58.364;25.582;2022-07-06T14:42:35;10.45;;;5.47;;
59766;SDS011;46248;58.364;25.582;2022-07-06T14:45:57;5.55;;;2.65;;
59766;SDS011;46248;58.364;25.582;2022-07-06T14:49:19;5.93;;;3.10;;
59766;SDS011;46248;58.364;25.582;2022-07-06T14:52:41;3.97;;;1.50;;
59766;SDS011;46248;58.364;25.582;2022-07-06T14:56:04;2.90;;;2.08;;
59766;SDS011;46248;58.364;25.582;2022-07-06T14:59:27;4.97;;;0.95;;
59766;SDS011;46248;58.364;25.582;2022-07-06T15:02:49;2.47;;;0.75;;
59766;SDS011;46248;58.364;25.582;2022-07-06T15:06:10;2.03;;;0.60;;
59766;SDS011;46248;58.364;25.582;2022-07-06T15:09:52;1.70;;;0.80;;
59766;SDS011;46248;58.364;25.582;2022-07-06T15:13:16;2.33;;;0.55;;
59766;SDS011;46248;58.364;25.582;2022-07-06T15:16:38;3.17;;;0.88;;
59766;SDS011;46248;58.364;25.582;2022-07-06T15:20:00;1.50;;;0.55;;
59766;SDS011;46248;58.364;25.582;2022-07-06T15:23:22;1.55;;;0.45;;
59766;SDS011;46248;58.364;25.582;2022-07-06T15:26:46;1.95;;;0.40;;
59766;SDS011;46248;58.364;25.582;2022-07-06T15:30:11;2.58;;;0.70;;
59766;SDS011;46248;58.364;25.582;2022-07-06T15:33:49;2.38;;;0.50;;
59766;SDS011;46248;58.364;25.582;2022-07-06T15:37:11;0.90;;;0.60;;
59766;SDS011;46248;58.364;25.582;2022-07-06T15:40:33;1.00;;;0.70;;
59766;SDS011;46248;58.364;25.582;2022-07-06T15:44:00;1.40;;;0.40;;
59766;SDS011;46248;58.364;25.582;2022-07-06T15:47:23;1.08;;;0.80;;
59766;SDS011;46248;58.364;25.582;2022-07-06T15:50:46;0.90;;;0.90;;
59766;SDS011;46248;58.364;25.582;2022-07-06T15:54:07;0.60;;;0.60;;
59766;SDS011;46248;58.364;25.582;2022-07-06T15:57:29;0.68;;;0.65;;
59766;SDS011;46248;58.364;25.582;2022-07-06T16:00:51;2.15;;;0.93;;
59766;SDS011;46248;58.364;25.582;2022-07-06T16:04:14;2.13;;;1.58;;
59766;SDS011;46248;58.364;25.582;2022-07-06T16:07:36;4.32;;;2.35;;
59766;SDS011;46248;58.364;25.582;2022-07-06T16:11:18;4.05;;;1.77;;
59766;SDS011;46248;58.364;25.582;2022-07-06T16:14:40;2.88;;;0.85;;
59766;SDS011;46248;58.364;25.582;2022-07-06T16:18:02;1.77;;;0.75;;
59766;SDS011;46248;58.364;25.582;2022-07-06T16:21:25;4.75;;;0.98;;
59766;SDS011;46248;58.364;25.582;2022-07-06T16:24:48;3.08;;;0.52;;
59766;SDS011;46248;58.364;25.582;2022-07-06T16:28:09;0.77;;;0.68;;
59766;SDS011;46248;58.364;25.582;2022-07-06T16:31:31;1.90;;;0.93;;
59766;SDS011;46248;58.364;25.582;2022-07-06T16:34:53;3.13;;;1.42;;
59766;SDS011;46248;58.364;25.582;2022-07-06T16:38:16;1.95;;;0.90;;
59766;SDS011;46248;58.364;25.582;2022-07-06T16:41:38;1.58;;;0.70;;
59766;SDS011;46248;58.364;25.582;2022-07-06T16:45:00;1.83;;;0.90;;
59766;SDS011;46248;58.364;25.582;2022-07-06T16:48:23;4.43;;;1.00;;
59766;SDS011;46248;58.364;25.582;2022-07-06T16:51:45;4.43;;;0.80;;
59766;SDS011;46248;58.364;25.582;2022-07-06T16:55:08;1.48;;;0.40;;
59766;SDS011;46248;58.364;25.582;2022-07-06T16:58:31;3.97;;;1.02;;
59766;SDS011;46248;58.364;25.582;2022-07-06T17:01:54;3.30;;;0.75;;
59766;SDS011;46248;58.364;25.582;2022-07-06T17:05:16;1.95;;;0.70;;
59766;SDS011;46248;58.364;25.582;2022-07-06T17:08:38;2.95;;;1.42;;
59766;SDS011;46248;58.364;25.582;2022-07-06T17:12:02;2.70;;;0.90;;
59766;SDS011;46248;58.364;25.582;2022-07-06T17:15:25;2.08;;;0.65;;
59766;SDS011;46248;58.364;25.582;2022-07-06T17:18:49;1.23;;;0.70;;
59766;SDS011;46248;58.364;25.582;2022-07-06T17:22:11;2.28;;;0.75;;
59766;SDS011;46248;58.364;25.582;2022-07-06T17:25:33;6.45;;;0.82;;
59766;SDS011;46248;58.364;25.582;2022-07-06T17:28:57;6.75;;;0.90;;
59766;SDS011;46248;58.364;25.582;2022-07-06T17:32:19;2.45;;;0.77;;
59766;SDS011;46248;58.364;25.582;2022-07-06T17:35:42;3.95;;;0.70;;
59766;SDS011;46248;58.364;25.582;2022-07-06T17:39:04;1.17;;;0.70;;
59766;SDS011;46248;58.364;25.582;2022-07-06T17:42:26;2.30;;;0.60;;
59766;SDS011;46248;58.364;25.582;2022-07-06T17:45:49;5.93;;;1.00;;
59766;SDS011;46248;58.364;25.582;2022-07-06T17:49:11;2.58;;;0.85;;
59766;SDS011;46248;58.364;25.582;2022-07-06T17:52:38;2.53;;;0.90;;
59766;SDS011;46248;58.364;25.582;2022-07-06T17:56:00;3.05;;;1.02;;
59766;SDS011;46248;58.364;25.582;2022-07-06T17:59:22;2.97;;;1.02;;
59766;SDS011;46248;58.364;25.582;2022-07-06T18:02:45;3.88;;;1.20;;
59766;SDS011;46248;58.364;25.582;2022-07-06T18:06:07;4.40;;;1.38;;
59766;SDS011;46248;58.364;25.582;2022-07-06T18:09:29;1.85;;;0.90;;
59766;SDS011;46248;58.364;25.582;2022-07-06T18:12:51;1.15;;;0.70;;
59766;SDS011;46248;58.364;25.582;2022-07-06T18:16:14;5.63;;;0.90;;
59766;SDS011;46248;58.364;25.582;2022-07-06T18:19:37;2.03;;;0.80;;
59766;SDS011;46248;58.364;25.582;2022-07-06T18:22:59;3.50;;;0.63;;
59766;SDS011;46248;58.364;25.582;2022-07-06T18:26:21;1.20;;;0.60;;
59766;SDS011;46248;58.364;25.582;2022-07-06T18:29:43;3.38;;;1.10;;
59766;SDS011;46248;58.364;25.582;2022-07-06T18:33:09;3.88;;;1.80;;
59766;SDS011;46248;58.364;25.582;2022-07-06T18:36:33;4.22;;;1.70;;
59766;SDS011;46248;58.364;25.582;2022-07-06T18:39:55;3.00;;;1.23;;
59766;SDS011;46248;58.364;25.582;2022-07-06T18:43:17;3.60;;;1.10;;
59766;SDS011;46248;58.364;25.582;2022-07-06T18:46:40;1.77;;;0.90;;
59766;SDS011;46248;58.364;25.582;2022-07-06T18:50:01;4.47;;;0.95;;
59766;SDS011;46248;58.364;25.582;2022-07-06T18:53:25;3.70;;;1.42;;
59766;SDS011;46248;58.364;25.582;2022-07-06T18:56:48;3.80;;;1.23;;
59766;SDS011;46248;58.364;25.582;2022-07-06T19:00:10;1.08;;;0.82;;
59766;SDS011;46248;58.364;25.582;2022-07-06T19:03:32;2.58;;;0.90;;
59766;SDS011;46248;58.364;25.582;2022-07-06T19:06:54;3.05;;;0.98;;
59766;SDS011;46248;58.364;25.582;2022-07-06T19:10:17;1.83;;;0.80;;
59766;SDS011;46248;58.364;25.582;2022-07-06T19:13:39;2.08;;;0.88;;
59766;SDS011;46248;58.364;25.582;2022-07-06T19:17:01;0.63;;;0.60;;
59766;SDS011;46248;58.364;25.582;2022-07-06T19:20:24;1.48;;;0.82;;
59766;SDS011;46248;58.364;25.582;2022-07-06T19:23:46;1.98;;;0.88;;
59766;SDS011;46248;58.364;25.582;2022-07-06T19:27:11;2.30;;;1.30;;
59766;SDS011;46248;58.364;25.582;2022-07-06T19:30:33;1.38;;;0.90;;
59766;SDS011;46248;58.364;25.582;2022-07-06T19:33:55;2.88;;;0.88;;
59766;SDS011;46248;58.364;25.582;2022-07-06T19:37:17;3.20;;;1.27;;
59766;SDS011;46248;58.364;25.582;2022-07-06T19:40:39;4.50;;;0.93;;
59766;SDS011;46248;58.364;25.582;2022-07-06T19:44:03;4.47;;;1.38;;
59766;SDS011;46248;58.364;25.582;2022-07-06T19:47:25;5.93;;;2.30;;
59766;SDS011;46248;58.364;25.582;2022-07-06T19:50:48;7.40;;;3.35;;
59766;SDS011;46248;58.364;25.582;2022-07-06T19:54:12;9.77;;;3.88;;
59766;SDS011;46248;58.364;25.582;2022-07-06T19:57:34;10.77;;;3.85;;
59766;SDS011;46248;58.364;25.582;2022-07-06T20:00:57;8.40;;;3.97;;
59766;SDS011;46248;58.364;25.582;2022-07-06T20:04:20;8.00;;;3.15;;
59766;SDS011;46248;58.364;25.582;2022-07-06T20:07:43;4.60;;;2.08;;
59766;SDS011;46248;58.364;25.582;2022-07-06T20:11:05;3.08;;;1.20;;